Nearby METAR Reports

 

KLEX - Lexington, Kentucky, USA
Distance from station: WNW 7mi, 11km
Updated: Sat, 27-May-2017 1:04pm EDT
Partly cloudy
Partly cloudy
 Wind from WSW
Wind: WSW 9 mph , 15 km/h
Temperature: 79°F , 26°C
Dew Point: 68°F , 20°C
Humidity: 70%
Barometer: 29.92 inHg , 1013.2 hPa
Clouds: Partly cloudy
Visibility: 10 miles , 16 km
Cloud details: Partly cloudy 1800 ft
2017/05/27 17:04 KLEX 271704Z 25008KT 10SM SCT018 26/20 A2992 RMK AO2 T02560200
KFFT - Frankfort, Kentucky, USA
Distance from station: WNW 26mi, 42km
Updated: Sat, 27-May-2017 12:53pm EDT
Mostly cloudy
Mostly cloudy
 Wind from SSW
Wind: SSW 6 mph , 9 km/h
Temperature: 79°F , 26°C
Dew Point: 68°F , 20°C
Humidity: 70%
Barometer: 29.89 inHg , 1012.2 hPa
Clouds: Mostly cloudy
Visibility: 10 miles , 16 km
Cloud details: Partly cloudy 2000 ft
Mostly cloudy 2700 ft
2017/05/27 16:53 KFFT 271653Z AUTO 20005KT 10SM SCT020 BKN027 26/20 A2989 RMK AO2 SLP113 T02610200
 
KIOB - Mount Sterling, Kentucky, USA
Distance from station: E 27mi, 44km
Updated: Sat, 27-May-2017 1:35pm EDT
Mostly cloudy
Mostly cloudy
 Wind from WSW
Wind: WSW 10 mph , 17 km/h
Temperature: 77°F , 25°C
Dew Point: 68°F , 20°C
Humidity: 74%
Barometer: 29.93 inHg , 1013.5 hPa
Clouds: Mostly cloudy
Visibility: 10 miles , 16 km
Cloud details: Partly cloudy 2200 ft
Mostly cloudy 2900 ft
Mostly cloudy 3600 ft
2017/05/27 17:35 KIOB 271735Z AUTO 25009KT 10SM SCT022 BKN029 BKN036 25/20 A2993 RMK AO2
KDVK - Danville, Kentucky, USA
Distance from station: SSW 33mi, 53km
Updated: Sat, 27-May-2017 1:15pm EDT
Partly cloudy
Partly cloudy
 Wind from S
Wind: S 9 mph , 15 km/h
Temperature: 81°F , 27°C
Heat Index: 84°F , 29°C
Dew Point: 68°F , 20°C
Humidity: 66%
Barometer: 29.92 inHg , 1013.2 hPa
Clouds: Partly cloudy
Visibility: 10 miles , 16 km
Cloud details: Partly cloudy 2400 ft
Partly cloudy 3100 ft
2017/05/27 17:15 KDVK 271715Z AUTO 18008KT 10SM SCT024 SCT031 27/20 A2992 RMK AO2